Time;durP1;ratioP1;P1;durP2;ratioP2;P2;SDS_P1;SDS_P2;PMS_P1;PMS_P2;Temp;Humidity;BMP_temperature;BMP_pressure;BME280_temperature;BME280_humidity;BME280_pressure;Samples;Min_cycle;Max_cycle;Signal;HPM_P1;HPM_P2
2023/12/29 00:01:32;;;;;;;1.55;0.90;;;12.50;99.90;;;;;;5093548;28;20036;-46
2023/12/29 00:03:58;;;;;;;1.50;1.00;;;12.50;99.90;;;;;;5094523;28;20039;-46
2023/12/29 00:06:24;;;;;;;1.38;1.00;;;12.50;99.90;;;;;;5094210;28;20099;-46
2023/12/29 00:08:49;;;;;;;1.40;0.80;;;12.50;99.90;;;;;;5094741;28;20028;-46
2023/12/29 00:11:21;;;;;;;1.17;0.88;;;12.50;99.90;;;;;;5093298;28;20060;-45
2023/12/29 00:13:47;;;;;;;2.67;1.05;;;12.50;99.90;;;;;;5094673;28;20032;-46
2023/12/29 00:16:14;;;;;;;1.75;0.98;;;12.50;99.90;;;;;;5093034;28;20412;-46
2023/12/29 00:18:40;;;;;;;1.15;0.90;;;12.40;99.90;;;;;;5093859;28;20047;-45
2023/12/29 00:21:06;;;;;;;1.10;0.82;;;12.40;99.90;;;;;;5093001;28;20462;-46
2023/12/29 00:23:31;;;;;;;1.52;0.98;;;12.50;99.90;;;;;;5092534;28;20032;-46
2023/12/29 00:25:57;;;;;;;1.40;1.00;;;12.50;99.90;;;;;;5093371;28;20028;-45
2023/12/29 00:28:23;;;;;;;1.45;1.10;;;12.40;99.90;;;;;;5094677;28;20030;-46
2023/12/29 00:30:48;;;;;;;1.88;1.00;;;12.50;99.90;;;;;;5094025;28;20584;-46
2023/12/29 00:33:14;;;;;;;1.23;1.00;;;12.50;99.90;;;;;;5093432;28;20020;-46
2023/12/29 00:35:40;;;;;;;1.73;1.05;;;12.40;99.90;;;;;;5093402;28;20081;-46
2023/12/29 00:38:06;;;;;;;2.33;1.00;;;12.40;99.90;;;;;;5093034;28;20081;-46
2023/12/29 00:40:32;;;;;;;2.38;1.10;;;12.40;99.90;;;;;;5093727;28;20028;-46
2023/12/29 00:42:57;;;;;;;1.50;1.02;;;12.50;99.90;;;;;;5094164;28;20031;-46
2023/12/29 00:45:23;;;;;;;1.27;1.00;;;12.40;99.90;;;;;;5092965;28;20428;-46
2023/12/29 00:47:50;;;;;;;1.30;0.85;;;12.40;99.90;;;;;;5093271;28;20040;-46
2023/12/29 00:50:16;;;;;;;1.38;1.00;;;12.40;99.90;;;;;;5093014;28;20028;-45
2023/12/29 00:52:42;;;;;;;2.00;0.95;;;12.40;99.90;;;;;;5092901;28;20520;-45
2023/12/29 00:55:08;;;;;;;1.88;1.10;;;12.40;99.90;;;;;;5092982;28;20039;-45
2023/12/29 00:57:34;;;;;;;0.93;0.80;;;12.40;99.90;;;;;;5092615;28;20062;-46
2023/12/29 01:00:01;;;;;;;1.88;1.20;;;12.40;99.90;;;;;;5093188;28;20065;-46
2023/12/29 01:02:26;;;;;;;1.60;1.00;;;12.40;99.90;;;;;;5091943;28;20110;-45
2023/12/29 01:04:52;;;;;;;1.48;1.20;;;12.40;99.90;;;;;;5091795;28;20112;-46
2023/12/29 01:07:17;;;;;;;1.33;1.02;;;12.40;99.90;;;;;;5093467;28;20024;-46
2023/12/29 01:09:43;;;;;;;1.35;0.90;;;12.40;99.90;;;;;;5092562;28;20034;-46
2023/12/29 01:12:09;;;;;;;1.40;1.10;;;12.40;99.90;;;;;;5092134;28;20023;-45
2023/12/29 01:14:35;;;;;;;1.42;1.00;;;12.40;99.90;;;;;;5091970;28;20031;-45
2023/12/29 01:17:00;;;;;;;1.67;1.10;;;12.40;99.90;;;;;;5092398;28;20032;-46
2023/12/29 01:19:26;;;;;;;2.63;1.08;;;12.40;99.90;;;;;;5092619;28;20024;-46
2023/12/29 01:21:51;;;;;;;2.00;1.20;;;12.40;99.90;;;;;;5092814;28;20024;-45
2023/12/29 01:24:17;;;;;;;1.77;1.00;;;12.40;99.90;;;;;;5091906;28;20614;-46
2023/12/29 01:26:43;;;;;;;1.45;0.98;;;12.40;99.90;;;;;;5091421;28;20020;-46
2023/12/29 01:29:08;;;;;;;1.38;1.20;;;12.40;99.90;;;;;;5091989;28;20028;-46
2023/12/29 01:31:34;;;;;;;1.42;1.10;;;12.40;99.90;;;;;;5092132;28;20078;-45
2023/12/29 01:34:00;;;;;;;1.77;1.08;;;12.40;99.90;;;;;;5092835;28;20390;-46
2023/12/29 01:36:25;;;;;;;1.55;1.20;;;12.40;99.90;;;;;;5092645;28;20489;-46
2023/12/29 01:38:51;;;;;;;1.40;1.00;;;12.40;99.90;;;;;;5091830;28;20032;-46
2023/12/29 01:41:19;;;;;;;1.88;1.13;;;12.40;99.90;;;;;;5092395;28;20056;-46
2023/12/29 01:44:00;;;;;;;1.35;1.17;;;12.40;99.90;;;;;;5093192;28;20446;-45
2023/12/29 01:46:30;;;;;;;1.40;1.10;;;12.40;99.90;;;;;;5092796;28;20039;-46
2023/12/29 01:48:57;;;;;;;2.40;1.10;;;12.40;99.90;;;;;;5092923;28;20205;-46
2023/12/29 01:51:25;;;;;;;2.10;1.08;;;12.40;99.90;;;;;;5093139;28;20028;-46
2023/12/29 01:53:53;;;;;;;1.67;1.02;;;12.40;99.90;;;;;;5092040;28;20047;-46
2023/12/29 01:56:20;;;;;;;2.45;1.30;;;12.40;99.90;;;;;;5092788;28;20017;-46
2023/12/29 01:58:49;;;;;;;0.90;0.80;;;12.40;99.90;;;;;;5092620;28;20028;-45
2023/12/29 02:01:16;;;;;;;2.17;1.10;;;12.40;99.90;;;;;;5093577;28;20025;-46
2023/12/29 02:03:43;;;;;;;1.35;1.23;;;12.40;99.90;;;;;;5091312;28;20020;-46
2023/12/29 02:06:10;;;;;;;1.52;1.00;;;12.40;99.90;;;;;;5091766;28;20028;-46
2023/12/29 02:08:37;;;;;;;1.35;1.08;;;12.40;99.90;;;;;;5092347;28;20386;-46
2023/12/29 02:11:04;;;;;;;2.20;1.27;;;12.40;99.90;;;;;;5091885;28;20024;-46
2023/12/29 02:13:29;;;;;;;1.83;1.17;;;12.40;99.90;;;;;;5092377;28;20026;-46
2023/12/29 02:15:59;;;;;;;1.38;1.10;;;12.40;99.90;;;;;;5092236;28;20103;-46
2023/12/29 02:18:27;;;;;;;1.40;1.20;;;12.40;99.90;;;;;;5091794;28;20028;-46
2023/12/29 02:20:53;;;;;;;1.27;1.02;;;12.40;99.90;;;;;;5092055;28;20020;-46
2023/12/29 02:23:18;;;;;;;1.25;0.98;;;12.40;99.90;;;;;;5093280;28;20090;-45
2023/12/29 02:25:44;;;;;;;1.58;1.08;;;12.40;99.90;;;;;;5096182;28;20486;-46
2023/12/29 02:28:24;;;;;;;1.27;1.00;;;12.40;99.90;;;;;;5096079;28;20021;-45
2023/12/29 02:30:57;;;;;;;1.88;1.20;;;12.40;99.90;;;;;;5095746;28;20034;-45
2023/12/29 02:33:25;;;;;;;2.57;1.20;;;12.40;99.90;;;;;;5095648;28;20119;-46
2023/12/29 02:35:55;;;;;;;1.42;1.00;;;12.40;99.90;;;;;;5094894;28;20028;-45
2023/12/29 02:38:20;;;;;;;1.83;1.15;;;12.30;99.90;;;;;;5094734;28;20078;-46
2023/12/29 02:40:47;;;;;;;1.10;0.90;;;12.40;99.90;;;;;;5094972;28;20036;-45
2023/12/29 02:43:12;;;;;;;1.67;1.10;;;12.40;99.90;;;;;;5095090;28;20035;-46
2023/12/29 02:45:38;;;;;;;1.17;0.95;;;12.40;99.90;;;;;;5095500;28;20023;-45
2023/12/29 02:48:04;;;;;;;1.27;1.13;;;12.40;99.90;;;;;;5093622;28;20024;-46
2023/12/29 02:50:29;;;;;;;1.38;1.05;;;12.40;99.90;;;;;;5095258;28;20099;-46
2023/12/29 02:52:56;;;;;;;1.20;0.90;;;12.40;99.90;;;;;;5094407;28;20028;-45
2023/12/29 02:55:22;;;;;;;1.77;1.23;;;12.50;99.90;;;;;;5094789;28;20039;-46
2023/12/29 02:57:48;;;;;;;2.10;1.30;;;12.50;99.90;;;;;;5094734;28;20024;-46
2023/12/29 03:00:14;;;;;;;1.35;1.00;;;12.50;99.90;;;;;;5095296;28;20032;-45
2023/12/29 03:02:40;;;;;;;1.70;1.23;;;12.60;99.90;;;;;;5094812;28;20044;-46
2023/12/29 03:05:06;;;;;;;1.10;0.90;;;12.60;99.90;;;;;;5095240;28;20064;-46
2023/12/29 03:07:31;;;;;;;1.80;1.30;;;12.60;99.90;;;;;;5094676;28;20099;-46
2023/12/29 03:09:57;;;;;;;2.03;1.30;;;12.60;99.90;;;;;;5095204;28;20099;-46
2023/12/29 03:12:22;;;;;;;2.15;1.33;;;12.60;99.90;;;;;;5095399;28;20394;-45
2023/12/29 03:14:48;;;;;;;3.17;1.30;;;12.70;99.90;;;;;;5094112;28;20028;-45
2023/12/29 03:17:14;;;;;;;2.00;1.30;;;12.70;99.90;;;;;;5094387;28;20020;-46
2023/12/29 03:19:39;;;;;;;1.42;1.27;;;12.70;99.90;;;;;;5094934;28;20039;-46
2023/12/29 03:22:06;;;;;;;1.60;1.10;;;12.70;99.90;;;;;;5095272;28;20074;-46
2023/12/29 03:24:31;;;;;;;1.58;1.20;;;12.70;99.90;;;;;;5095301;28;20033;-46
2023/12/29 03:26:57;;;;;;;3.70;1.20;;;12.70;99.90;;;;;;5095188;28;20111;-45
2023/12/29 03:29:23;;;;;;;1.63;1.00;;;12.80;99.90;;;;;;5094958;28;20470;-46
2023/12/29 03:31:48;;;;;;;2.58;1.20;;;12.70;99.90;;;;;;5094730;28;20016;-46
2023/12/29 03:34:14;;;;;;;2.25;1.40;;;12.80;99.90;;;;;;5094611;28;20085;-46
2023/12/29 03:36:40;;;;;;;1.63;1.30;;;12.70;99.90;;;;;;5093455;28;20385;-45
2023/12/29 03:39:05;;;;;;;1.33;1.10;;;12.80;99.90;;;;;;5094300;28;20027;-46
2023/12/29 03:41:31;;;;;;;2.05;1.42;;;12.80;99.90;;;;;;5093317;28;20028;-46
2023/12/29 03:43:57;;;;;;;1.40;1.10;;;12.80;99.90;;;;;;5093258;28;20027;-45
2023/12/29 03:46:23;;;;;;;1.77;1.20;;;12.80;99.90;;;;;;5093151;28;20431;-46
2023/12/29 03:48:48;;;;;;;1.63;1.27;;;12.80;99.90;;;;;;5093982;28;20028;-45
2023/12/29 03:51:15;;;;;;;1.80;1.17;;;12.80;99.90;;;;;;5093159;28;20651;-45
2023/12/29 03:53:41;;;;;;;1.98;1.20;;;12.80;99.90;;;;;;5093315;28;20047;-45
2023/12/29 03:56:14;;;;;;;1.63;1.33;;;12.80;99.90;;;;;;5093631;28;20473;-46
2023/12/29 03:58:40;;;;;;;1.50;1.30;;;12.80;99.90;;;;;;5093229;28;20028;-46
2023/12/29 04:01:13;;;;;;;1.30;1.10;;;12.70;99.90;;;;;;5093471;28;20035;-45
2023/12/29 04:03:38;;;;;;;1.23;1.02;;;12.70;99.90;;;;;;5094510;28;20385;-46
2023/12/29 04:06:05;;;;;;;1.35;1.10;;;12.70;99.90;;;;;;5092746;28;20103;-45
2023/12/29 04:08:30;;;;;;;1.40;1.10;;;12.70;99.90;;;;;;5092992;28;20031;-45
2023/12/29 04:10:56;;;;;;;1.83;1.10;;;12.70;99.90;;;;;;5093882;28;20386;-45
2023/12/29 04:13:22;;;;;;;1.50;1.10;;;12.70;99.90;;;;;;5094034;28;20020;-46
2023/12/29 04:15:47;;;;;;;2.00;1.10;;;12.70;99.90;;;;;;5093445;28;20394;-45
2023/12/29 04:18:13;;;;;;;2.25;1.33;;;12.70;99.90;;;;;;5093162;28;20044;-46
2023/12/29 04:20:39;;;;;;;1.45;1.20;;;12.70;99.90;;;;;;5093014;28;20024;-46
2023/12/29 04:23:06;;;;;;;3.38;1.52;;;12.70;99.90;;;;;;5093409;28;20067;-46
2023/12/29 04:25:32;;;;;;;1.50;1.00;;;12.70;99.90;;;;;;5092453;28;20111;-46
2023/12/29 04:27:58;;;;;;;1.38;1.00;;;12.70;99.90;;;;;;5092612;28;20517;-46
2023/12/29 04:30:23;;;;;;;1.50;1.10;;;12.70;99.90;;;;;;5093259;28;20048;-45
2023/12/29 04:32:49;;;;;;;1.95;1.13;;;12.70;99.90;;;;;;5093396;28;20031;-45
2023/12/29 04:35:15;;;;;;;1.65;1.17;;;12.70;99.90;;;;;;5092707;28;20425;-46
2023/12/29 04:37:43;;;;;;;1.88;1.00;;;12.70;99.90;;;;;;5093402;28;20518;-46
2023/12/29 04:40:09;;;;;;;1.75;1.20;;;12.70;99.90;;;;;;5094612;28;20062;-46
2023/12/29 04:42:34;;;;;;;1.65;1.10;;;12.70;99.90;;;;;;5093919;28;20056;-46
2023/12/29 04:45:00;;;;;;;1.92;1.20;;;12.70;99.90;;;;;;5092551;28;20028;-45
2023/12/29 04:47:25;;;;;;;1.80;1.23;;;12.70;99.90;;;;;;5092770;28;20457;-45
2023/12/29 04:49:51;;;;;;;1.17;0.90;;;12.70;99.90;;;;;;5093831;28;20513;-46
2023/12/29 04:52:17;;;;;;;1.38;1.08;;;12.60;99.90;;;;;;5092157;28;20032;-46
2023/12/29 04:54:43;;;;;;;1.77;1.33;;;12.60;99.90;;;;;;5091493;28;20023;-46
2023/12/29 04:57:08;;;;;;;1.88;1.20;;;12.60;99.90;;;;;;5092884;28;20094;-46
2023/12/29 04:59:34;;;;;;;1.92;1.20;;;12.60;99.90;;;;;;5093273;28;20024;-46
2023/12/29 05:02:00;;;;;;;2.70;1.40;;;12.60;99.90;;;;;;5093148;28;20024;-46
2023/12/29 05:04:25;;;;;;;1.33;1.08;;;12.60;99.90;;;;;;5093481;28;20704;-45
2023/12/29 05:06:51;;;;;;;2.03;1.10;;;12.60;99.90;;;;;;5093046;28;20047;-46
2023/12/29 05:09:16;;;;;;;1.48;1.00;;;12.60;99.90;;;;;;5092284;28;20082;-46
2023/12/29 05:11:43;;;;;;;1.60;1.13;;;12.60;99.90;;;;;;5093157;28;20020;-45
2023/12/29 05:14:08;;;;;;;1.50;1.13;;;12.60;99.90;;;;;;5093405;28;20062;-46
2023/12/29 05:16:34;;;;;;;2.00;1.20;;;12.60;99.90;;;;;;5093816;28;20408;-46
2023/12/29 05:19:00;;;;;;;2.10;1.13;;;12.60;99.90;;;;;;5093351;28;20465;-46
2023/12/29 05:21:26;;;;;;;1.70;1.20;;;12.50;99.90;;;;;;5092077;28;20032;-46
2023/12/29 05:23:52;;;;;;;1.63;1.08;;;12.60;99.90;;;;;;5092503;28;20035;-46
2023/12/29 05:26:18;;;;;;;1.80;1.27;;;12.60;99.90;;;;;;5092889;28;20051;-45
2023/12/29 05:28:44;;;;;;;2.05;1.15;;;12.60;99.90;;;;;;5093047;28;20060;-46
2023/12/29 05:31:09;;;;;;;1.27;1.10;;;12.60;99.90;;;;;;5092776;28;20028;-45
2023/12/29 05:33:35;;;;;;;2.13;0.90;;;12.50;99.90;;;;;;5091731;28;20020;-46
2023/12/29 05:36:09;;;;;;;1.30;1.10;;;12.60;99.90;;;;;;5091351;28;20020;-47
2023/12/29 05:38:35;;;;;;;1.80;0.95;;;12.60;99.90;;;;;;5091410;28;20032;-46
2023/12/29 05:41:04;;;;;;;1.92;1.30;;;12.60;99.90;;;;;;5091765;28;20024;-46
2023/12/29 05:43:34;;;;;;;1.20;1.00;;;12.50;99.90;;;;;;5092319;28;20023;-46
2023/12/29 05:46:00;;;;;;;1.70;1.08;;;12.50;99.90;;;;;;5091355;28;20119;-46
2023/12/29 05:48:26;;;;;;;2.55;1.05;;;12.50;99.90;;;;;;5092720;28;20031;-45
2023/12/29 05:50:52;;;;;;;1.95;1.23;;;12.50;99.90;;;;;;5092078;28;20017;-46
2023/12/29 05:53:18;;;;;;;1.38;1.20;;;12.50;99.90;;;;;;5092212;28;20099;-46
2023/12/29 05:55:44;;;;;;;1.25;0.98;;;12.50;99.90;;;;;;5092811;28;20021;-45
2023/12/29 05:58:10;;;;;;;0.95;0.70;;;12.50;99.90;;;;;;5094954;28;20028;-46
2023/12/29 06:00:39;;;;;;;1.63;1.20;;;12.50;99.90;;;;;;5095524;28;20035;-46
2023/12/29 06:03:05;;;;;;;1.25;1.00;;;12.50;99.90;;;;;;5097266;28;20028;-46
2023/12/29 06:05:32;;;;;;;2.13;1.08;;;12.50;99.90;;;;;;5096267;28;20089;-45
2023/12/29 06:07:58;;;;;;;1.33;1.10;;;12.50;99.90;;;;;;5095591;28;20036;-46
2023/12/29 06:10:23;;;;;;;1.10;0.90;;;12.50;99.90;;;;;;5095180;28;20020;-45
2023/12/29 06:12:49;;;;;;;1.15;1.00;;;12.50;99.90;;;;;;5094567;28;20020;-46
2023/12/29 06:15:15;;;;;;;1.42;1.10;;;12.50;99.90;;;;;;5096596;28;20024;-46
2023/12/29 06:17:41;;;;;;;1.10;0.90;;;12.50;99.90;;;;;;5096537;28;20389;-46
2023/12/29 06:20:08;;;;;;;1.38;1.00;;;12.40;99.90;;;;;;5096882;28;20550;-46
2023/12/29 06:22:34;;;;;;;3.03;1.10;;;12.50;99.90;;;;;;5095379;28;20028;-46
2023/12/29 06:24:59;;;;;;;1.35;0.98;;;12.50;99.90;;;;;;5094482;28;20024;-46
2023/12/29 06:27:26;;;;;;;1.52;1.08;;;12.40;99.90;;;;;;5095629;28;20024;-43
2023/12/29 06:29:51;;;;;;;1.98;1.13;;;12.50;99.90;;;;;;5096209;28;20020;-42
2023/12/29 06:32:17;;;;;;;1.83;1.13;;;12.50;99.90;;;;;;5094723;28;20107;-45
2023/12/29 06:34:43;;;;;;;2.08;1.00;;;12.50;99.90;;;;;;5095660;28;20039;-44
2023/12/29 06:37:08;;;;;;;3.35;1.40;;;12.50;99.90;;;;;;5095474;28;20020;-45
2023/12/29 06:39:34;;;;;;;1.70;1.30;;;12.40;99.90;;;;;;5095181;28;20115;-45
2023/12/29 06:42:00;;;;;;;2.38;1.40;;;12.50;99.90;;;;;;5094896;28;20080;-45
2023/12/29 06:44:25;;;;;;;2.50;1.33;;;12.50;99.90;;;;;;5094842;28;20062;-45
2023/12/29 06:46:51;;;;;;;2.05;1.40;;;12.40;99.90;;;;;;5095055;28;20016;-43
2023/12/29 06:49:16;;;;;;;2.38;1.13;;;12.40;99.90;;;;;;5094372;28;20024;-45
2023/12/29 06:51:42;;;;;;;2.67;1.50;;;12.50;99.90;;;;;;5094326;28;20031;-45
2023/12/29 06:54:08;;;;;;;2.05;1.42;;;12.40;99.90;;;;;;5094238;28;20027;-43
2023/12/29 06:56:34;;;;;;;1.60;1.30;;;12.40;99.90;;;;;;5094041;28;20020;-45
2023/12/29 06:58:59;;;;;;;1.73;1.27;;;12.40;99.90;;;;;;5094122;28;20501;-45
2023/12/29 07:01:25;;;;;;;2.47;1.42;;;12.40;99.90;;;;;;5094548;28;20363;-45
2023/12/29 07:03:51;;;;;;;3.67;1.33;;;12.40;99.90;;;;;;5094690;28;20092;-45
2023/12/29 07:06:16;;;;;;;1.95;1.45;;;12.40;99.90;;;;;;5094439;28;20128;-45
2023/12/29 07:08:42;;;;;;;3.53;1.10;;;12.40;99.90;;;;;;5094321;28;20543;-45
2023/12/29 07:11:11;;;;;;;2.35;1.27;;;12.40;99.90;;;;;;5095655;28;20026;-45
2023/12/29 07:13:37;;;;;;;2.60;1.83;;;12.40;99.90;;;;;;5096742;28;20024;-45
2023/12/29 07:16:04;;;;;;;1.90;1.20;;;12.40;99.90;;;;;;5094289;28;20200;-45
2023/12/29 07:18:29;;;;;;;5.13;1.40;;;12.40;99.90;;;;;;5093832;28;20027;-45
2023/12/29 07:20:55;;;;;;;1.75;1.20;;;12.40;99.90;;;;;;5093733;28;20031;-45
2023/12/29 07:23:21;;;;;;;2.67;1.23;;;12.40;99.90;;;;;;5093494;28;20491;-45
2023/12/29 07:25:48;;;;;;;2.47;1.30;;;12.40;99.90;;;;;;5093515;28;20452;-44
2023/12/29 07:28:13;;;;;;;2.47;1.35;;;12.40;99.90;;;;;;5093561;28;20024;-43
2023/12/29 07:30:39;;;;;;;2.00;1.30;;;12.40;99.90;;;;;;5093617;28;20020;-42
2023/12/29 07:33:05;;;;;;;1.73;1.05;;;12.40;99.90;;;;;;5094234;28;20069;-45
2023/12/29 07:35:31;;;;;;;2.25;1.45;;;12.40;99.90;;;;;;5096603;28;20032;-45
2023/12/29 07:37:56;;;;;;;1.70;1.15;;;12.40;99.90;;;;;;5094748;28;20043;-45
2023/12/29 07:40:22;;;;;;;1.67;1.33;;;12.30;99.90;;;;;;5094571;28;20031;-44
2023/12/29 07:42:50;;;;;;;1.30;0.90;;;12.40;99.90;;;;;;5094510;28;20039;-45
2023/12/29 07:45:16;;;;;;;2.22;1.10;;;12.40;99.90;;;;;;5095246;28;20024;-45
2023/12/29 07:47:42;;;;;;;1.67;0.98;;;12.40;99.90;;;;;;5094241;28;20028;-45
2023/12/29 07:50:08;;;;;;;1.77;1.10;;;12.40;99.90;;;;;;5094077;28;20035;-45
2023/12/29 07:52:34;;;;;;;2.30;1.30;;;12.40;99.90;;;;;;5093937;28;20020;-44
2023/12/29 07:54:59;;;;;;;1.98;1.13;;;12.40;99.90;;;;;;5094181;28;20078;-45
2023/12/29 07:57:25;;;;;;;1.52;1.15;;;12.40;99.90;;;;;;5093544;28;20111;-45
2023/12/29 07:59:51;;;;;;;1.42;1.05;;;12.40;99.90;;;;;;5093654;28;20077;-44
2023/12/29 08:02:16;;;;;;;1.75;1.00;;;12.50;99.90;;;;;;5094274;28;20512;-44
2023/12/29 08:04:42;;;;;;;1.15;0.90;;;12.60;99.90;;;;;;5092940;28;20024;-44
2023/12/29 08:07:08;;;;;;;1.45;1.13;;;12.60;99.90;;;;;;5093318;28;20024;-44
2023/12/29 08:09:33;;;;;;;1.83;1.25;;;12.70;99.90;;;;;;5094209;28;20103;-45
2023/12/29 08:12:00;;;;;;;2.13;1.00;;;12.80;99.90;;;;;;5093734;28;20377;-45
2023/12/29 08:14:26;;;;;;;1.30;0.95;;;12.90;99.90;;;;;;5092966;28;20024;-43
2023/12/29 08:16:51;;;;;;;1.23;1.00;;;12.90;99.90;;;;;;5093786;28;20103;-45
2023/12/29 08:19:17;;;;;;;1.70;1.20;;;13.00;99.90;;;;;;5095067;28;20024;-45
2023/12/29 08:21:43;;;;;;;1.88;1.20;;;13.10;99.90;;;;;;5093704;28;20519;-45
2023/12/29 08:24:08;;;;;;;1.30;1.00;;;13.10;99.90;;;;;;5093275;28;20047;-45
2023/12/29 08:26:34;;;;;;;2.92;1.08;;;13.20;99.90;;;;;;5093815;28;20032;-45
2023/12/29 08:28:59;;;;;;;1.33;0.93;;;13.30;99.90;;;;;;5093218;28;20048;-45
2023/12/29 08:31:28;;;;;;;1.80;1.27;;;13.30;99.90;;;;;;5092683;28;20051;-45
2023/12/29 08:33:54;;;;;;;1.65;0.90;;;13.40;99.90;;;;;;5092783;28;20024;-44
2023/12/29 08:36:20;;;;;;;1.65;1.10;;;13.50;99.90;;;;;;5093240;28;20035;-44
2023/12/29 08:38:46;;;;;;;1.23;0.93;;;13.50;99.90;;;;;;5093205;28;20533;-45
2023/12/29 08:41:14;;;;;;;1.73;1.00;;;13.60;99.90;;;;;;5093338;28;20107;-45
2023/12/29 08:43:39;;;;;;;1.95;1.13;;;13.70;99.90;;;;;;5093302;28;20493;-45
2023/12/29 08:46:05;;;;;;;1.80;1.15;;;13.70;99.90;;;;;;5092659;28;20028;-45
2023/12/29 08:48:31;;;;;;;1.30;0.85;;;13.80;99.90;;;;;;5094491;28;20024;-44
2023/12/29 08:50:56;;;;;;;1.30;1.00;;;13.80;99.90;;;;;;5093745;28;20028;-45
2023/12/29 08:53:22;;;;;;;1.60;0.90;;;13.80;99.90;;;;;;5093685;28;20020;-45
2023/12/29 08:55:48;;;;;;;1.80;1.00;;;13.90;99.90;;;;;;5092001;28;20385;-45
2023/12/29 08:58:13;;;;;;;2.10;1.00;;;13.90;99.90;;;;;;5091948;28;20028;-43
2023/12/29 09:00:39;;;;;;;3.38;1.05;;;14.00;99.90;;;;;;5092719;28;20024;-45
2023/12/29 09:03:05;;;;;;;1.27;1.15;;;14.00;99.90;;;;;;5091733;28;20016;-45
2023/12/29 09:05:30;;;;;;;1.10;0.93;;;14.00;99.90;;;;;;5091703;28;20024;-45
2023/12/29 09:07:56;;;;;;;1.60;1.00;;;14.10;99.90;;;;;;5092587;28;20111;-44
2023/12/29 09:10:22;;;;;;;1.45;1.02;;;14.10;99.90;;;;;;5094857;28;20066;-45
2023/12/29 09:12:49;;;;;;;1.88;1.00;;;14.10;99.90;;;;;;5093634;28;20099;-45
2023/12/29 09:15:15;;;;;;;1.73;1.20;;;14.20;99.90;;;;;;5091716;28;20024;-45
2023/12/29 09:17:40;;;;;;;1.42;1.20;;;14.10;99.90;;;;;;5091974;28;20389;-45
2023/12/29 09:20:07;;;;;;;1.35;1.05;;;14.20;99.90;;;;;;5091723;28;20040;-45
2023/12/29 09:22:33;;;;;;;1.13;0.93;;;14.20;99.90;;;;;;5093334;28;20020;-45
2023/12/29 09:24:59;;;;;;;1.33;0.88;;;14.20;99.90;;;;;;5091819;28;20099;-45
2023/12/29 09:27:25;;;;;;;1.45;1.05;;;14.20;99.90;;;;;;5093333;28;20492;-45
2023/12/29 09:29:50;;;;;;;1.45;1.00;;;14.20;99.90;;;;;;5091408;28;20394;-44
2023/12/29 09:32:16;;;;;;;1.55;1.00;;;14.20;99.90;;;;;;5090857;28;20024;-45
2023/12/29 09:34:42;;;;;;;2.08;1.20;;;14.20;99.90;;;;;;5091171;28;20131;-45
2023/12/29 09:37:08;;;;;;;1.38;1.00;;;14.20;99.90;;;;;;5091315;28;20032;-45
2023/12/29 09:39:33;;;;;;;1.35;0.90;;;14.30;99.90;;;;;;5091256;28;20031;-45
2023/12/29 09:42:00;;;;;;;0.85;0.70;;;14.30;99.90;;;;;;5093309;28;20119;-45
2023/12/29 09:44:30;;;;;;;1.50;0.95;;;14.20;99.90;;;;;;5091409;28;20020;-45
2023/12/29 09:47:01;;;;;;;1.98;1.20;;;14.30;99.90;;;;;;5093686;28;20024;-45
2023/12/29 09:49:33;;;;;;;1.00;0.80;;;14.30;99.90;;;;;;5092420;28;20024;-43
2023/12/29 09:52:01;;;;;;;1.75;1.00;;;14.30;99.90;;;;;;5092187;28;20035;-45
2023/12/29 09:54:27;;;;;;;1.48;1.08;;;14.30;99.90;;;;;;5093059;28;20406;-43
2023/12/29 09:56:54;;;;;;;1.10;0.90;;;14.30;99.90;;;;;;5091202;28;20099;-45
2023/12/29 09:59:21;;;;;;;2.25;0.80;;;14.40;99.90;;;;;;5091614;28;20016;-45
2023/12/29 10:01:48;;;;;;;1.13;0.82;;;14.40;99.90;;;;;;5092167;28;20032;-43
2023/12/29 10:04:14;;;;;;;1.20;0.80;;;14.50;99.90;;;;;;5092404;28;20028;-45
2023/12/29 10:06:46;;;;;;;1.55;0.95;;;14.40;99.90;;;;;;5092138;28;20386;-45
2023/12/29 10:09:13;;;;;;;1.15;0.90;;;14.50;99.90;;;;;;5093352;28;20538;-45
2023/12/29 10:11:42;;;;;;;1.77;0.80;;;14.50;99.90;;;;;;5092465;28;20111;-44
2023/12/29 10:14:35;;;;;;;1.67;0.85;;;14.60;99.90;;;;;;5092515;28;20021;-43
2023/12/29 10:17:14;;;;;;;1.27;0.82;;;14.60;99.90;;;;;;5091993;28;20027;-45
2023/12/29 10:19:41;;;;;;;2.38;0.77;;;14.60;99.90;;;;;;5093548;28;20024;-44
2023/12/29 10:22:24;;;;;;;1.52;0.80;;;14.60;99.90;;;;;;5093521;28;20048;-45
2023/12/29 10:24:51;;;;;;;2.15;1.00;;;14.70;99.90;;;;;;5092234;28;20038;-46
2023/12/29 10:27:16;;;;;;;2.35;0.98;;;14.70;99.90;;;;;;5091699;28;20482;-45
2023/12/29 10:29:42;;;;;;;0.85;0.70;;;14.80;99.90;;;;;;5092535;28;20043;-45
2023/12/29 10:32:09;;;;;;;1.08;0.88;;;14.80;99.90;;;;;;5091724;28;20028;-46
2023/12/29 10:34:35;;;;;;;1.48;0.85;;;14.90;99.90;;;;;;5091216;28;20062;-45
2023/12/29 10:37:06;;;;;;;1.67;0.60;;;15.00;99.90;;;;;;5091942;28;20024;-44
2023/12/29 10:39:32;;;;;;;0.80;0.60;;;15.00;99.90;;;;;;5092088;28;20398;-45
2023/12/29 10:42:05;;;;;;;0.80;0.63;;;15.10;99.80;;;;;;5091933;28;20028;-46
2023/12/29 10:44:32;;;;;;;1.03;0.90;;;15.20;99.80;;;;;;5094346;28;20019;-46
2023/12/29 10:46:57;;;;;;;0.88;0.70;;;15.20;99.70;;;;;;5096298;28;20031;-45
2023/12/29 10:49:23;;;;;;;0.88;0.65;;;15.30;99.60;;;;;;5094938;28;20020;-45
2023/12/29 10:51:48;;;;;;;0.85;0.80;;;15.30;99.60;;;;;;5095216;28;20066;-46
2023/12/29 10:54:23;;;;;;;1.70;0.82;;;15.40;99.50;;;;;;5095828;28;20031;-46
2023/12/29 10:57:02;;;;;;;;;;;15.50;99.40;;;;;;5097009;28;20016;-46
2023/12/29 10:59:28;;;;;;;0.73;0.55;;;15.60;99.40;;;;;;5095452;28;19908;-45
2023/12/29 11:01:54;;;;;;;0.77;0.60;;;15.60;99.30;;;;;;5095958;28;20028;-45
2023/12/29 11:04:23;;;;;;;0.98;0.65;;;15.70;99.30;;;;;;5095215;28;20081;-45
2023/12/29 11:06:51;;;;;;;0.80;0.57;;;15.80;99.20;;;;;;5095660;28;20074;-45
2023/12/29 11:09:30;;;;;;;1.00;0.65;;;15.90;99.10;;;;;;5095245;28;20027;-45
2023/12/29 11:12:00;;;;;;;0.85;0.50;;;15.90;99.00;;;;;;5094814;28;20032;-44
2023/12/29 11:14:28;;;;;;;2.28;0.52;;;16.00;99.00;;;;;;5095074;28;20039;-45
2023/12/29 11:16:55;;;;;;;0.70;0.60;;;16.10;98.90;;;;;;5094384;28;20031;-45
2023/12/29 11:19:21;;;;;;;1.25;0.68;;;16.10;98.80;;;;;;5094876;28;20385;-45
2023/12/29 11:21:51;;;;;;;0.90;0.52;;;16.20;98.70;;;;;;5095380;28;20024;-45
2023/12/29 11:24:17;;;;;;;0.82;0.70;;;16.20;98.60;;;;;;5094004;28;20035;-44
2023/12/29 11:26:44;;;;;;;1.02;0.50;;;16.30;98.60;;;;;;5093833;28;20386;-45
2023/12/29 11:29:11;;;;;;;0.88;0.65;;;16.40;98.50;;;;;;5095778;28;20024;-43
2023/12/29 11:31:37;;;;;;;0.70;0.60;;;16.40;98.40;;;;;;5095175;28;20031;-45
2023/12/29 11:34:12;;;;;;;0.95;0.60;;;16.50;98.40;;;;;;5094065;28;20501;-45
2023/12/29 11:36:43;;;;;;;0.82;0.70;;;16.50;98.20;;;;;;5093774;28;20378;-45
2023/12/29 11:39:27;;;;;;;0.68;0.57;;;16.60;98.20;;;;;;5095985;28;20502;-45
2023/12/29 11:42:12;;;;;;;1.00;0.70;;;16.70;98.10;;;;;;5096062;28;20030;-45
2023/12/29 11:44:38;;;;;;;0.82;0.50;;;16.70;98.00;;;;;;5095116;28;20647;-44
2023/12/29 11:47:03;;;;;;;0.65;0.60;;;16.80;97.90;;;;;;5094353;28;20100;-44
2023/12/29 11:50:01;;;;;;;0.90;0.50;;;16.80;97.80;;;;;;5094461;28;20024;-45
2023/12/29 11:52:34;;;;;;;0.75;0.60;;;16.90;97.70;;;;;;5094660;28;20024;-45
2023/12/29 11:55:11;;;;;;;1.00;0.50;;;17.00;97.70;;;;;;5093452;28;20068;-45
2023/12/29 11:57:38;;;;;;;0.80;0.50;;;17.00;97.50;;;;;;5094738;28;20237;-45
2023/12/29 12:00:07;;;;;;;1.48;0.57;;;17.10;97.50;;;;;;5093971;28;20031;-45
2023/12/29 12:02:33;;;;;;;0.55;0.50;;;17.10;97.40;;;;;;5094217;28;20020;-45
2023/12/29 12:04:58;;;;;;;0.80;0.52;;;17.10;97.30;;;;;;5093908;28;20036;-45
2023/12/29 12:07:31;;;;;;;0.70;0.60;;;17.20;97.20;;;;;;5093722;28;20020;-45
2023/12/29 12:10:34;;;;;;;0.70;0.50;;;17.20;97.10;;;;;;5093182;28;20021;-47
2023/12/29 12:13:00;;;;;;;0.85;0.55;;;17.30;97.10;;;;;;5092259;28;20016;-45
2023/12/29 12:15:29;;;;;;;0.88;0.70;;;17.30;97.00;;;;;;5093080;28;20431;-45
2023/12/29 12:17:59;;;;;;;0.93;0.68;;;17.40;97.00;;;;;;5094302;28;20028;-45
2023/12/29 12:20:26;;;;;;;0.80;0.60;;;17.40;96.90;;;;;;5094291;28;20023;-45
2023/12/29 12:23:07;;;;;;;0.75;0.63;;;17.40;96.80;;;;;;5092891;28;20032;-45
2023/12/29 12:25:34;;;;;;;1.05;0.65;;;17.40;96.80;;;;;;5075774;28;20031;-45
2023/12/29 12:28:02;;;;;;;1.10;0.73;;;17.50;96.70;;;;;;5092314;28;20055;-45
2023/12/29 12:30:29;;;;;;;1.17;0.68;;;17.50;96.70;;;;;;5092521;28;20051;-45
2023/12/29 12:32:59;;;;;;;0.95;0.63;;;17.50;96.60;;;;;;5093027;28;20048;-45
2023/12/29 12:35:27;;;;;;;1.15;0.77;;;17.50;96.50;;;;;;5093828;28;20020;-45
2023/12/29 12:38:11;;;;;;;1.10;0.60;;;17.60;96.50;;;;;;5093068;28;20107;-45
2023/12/29 12:40:38;;;;;;;0.82;0.70;;;17.60;96.40;;;;;;5094216;28;20043;-46
2023/12/29 12:43:03;;;;;;;0.70;0.57;;;17.60;96.40;;;;;;5093346;28;20076;-45
2023/12/29 12:45:35;;;;;;;0.68;0.50;;;17.70;96.40;;;;;;5092741;28;20105;-45
2023/12/29 12:48:13;;;;;;;1.02;0.70;;;17.70;96.60;;;;;;5092865;28;20024;-45